Decoded Metar for KFIT (FITCHBURG in MA, USA) (IATA:FIT) | Meteo·Mobile Aviation Weather
aviador You're here:

KFIT Decoded Metar

FITCHBURG in MA, USA
Report Time2019-10-18 12:52:00
UTC Time2019-10-18 13:27:34
Flight Rules vfr VFR
Wind300° at 07 kt
W.Decomp.*RWY 32: 7.0 kt HW 0.6 kt LCW
RWY 02: 3.0 kt HW 6.3 kt LCW
Visibility9999 m
Phenomena:N/A
Clouds:Overcast 037 Hf
Expected CloudBase > 2,800 ft AGL from Temp-Dew spread
Ceiling3,700 ft
Temp10°C (ISA -4)
Dew Point03°C (62% RH)
AAT6.0°C
QNH1005 hPa
Density Alt197 ft
Elevation338 ft
Report Wrong Elevation
Raw Report
KFIT 181252Z AUTO 30007KT 10SM OVC037 10/03 A2967 RMK AO2 SLP048
T01000033=

Extra information for KFIT:More info

Metar Taf Metar & Taf Last 4 Metars F.Rules Stats Wind Profile Meteogram Temp Stats Airport Information Weather charts Add Link Nearby VenuesMetar ALERT Operation Metar Decoded Social comments

AIRNAV info for KFIT